createdAt,value
2022-11-07T00:00:12.539Z,82.64
2022-11-07T00:03:10.089Z,82.78
2022-11-07T00:06:07.700Z,82.88
2022-11-07T00:09:05.170Z,82.90
2022-11-07T00:12:02.614Z,82.95
2022-11-07T00:15:00.051Z,83.00
2022-11-07T00:17:57.527Z,83.02
2022-11-07T00:20:54.978Z,83.05
2022-11-07T00:23:52.456Z,83.12
2022-11-07T00:26:49.969Z,83.20
2022-11-07T00:29:47.497Z,83.28
2022-11-07T00:32:44.959Z,83.37
2022-11-07T00:35:42.431Z,83.45
2022-11-07T00:38:40.021Z,83.51
2022-11-07T00:41:37.470Z,83.56
2022-11-07T00:44:34.909Z,83.65
2022-11-07T00:47:32.391Z,83.74
2022-11-07T00:50:29.850Z,83.81
2022-11-07T00:53:27.295Z,83.83
2022-11-07T00:56:24.741Z,83.85
2022-11-07T00:59:22.197Z,83.88
2022-11-07T01:02:19.683Z,83.87
2022-11-07T01:05:17.200Z,83.90
2022-11-07T01:08:14.657Z,83.92
2022-11-07T01:11:12.114Z,83.87
2022-11-07T01:14:09.573Z,83.78
2022-11-07T01:17:07.053Z,83.68
2022-11-07T01:20:04.508Z,83.59
2022-11-07T01:23:01.957Z,83.55
2022-11-07T01:25:59.409Z,83.52
2022-11-07T01:28:56.885Z,83.50
2022-11-07T01:31:54.347Z,83.61
2022-11-07T01:34:51.817Z,83.72
2022-11-07T01:37:49.267Z,83.74
2022-11-07T01:41:04.415Z,83.76
2022-11-07T01:44:01.880Z,83.81
2022-11-07T01:46:59.335Z,83.88
2022-11-07T01:49:56.789Z,83.89
2022-11-07T01:52:54.259Z,83.96
2022-11-07T01:55:51.756Z,83.99
2022-11-07T01:58:49.217Z,84.14
2022-11-07T02:01:46.777Z,84.19
2022-11-07T02:04:44.318Z,84.21
2022-11-07T02:07:42.973Z,84.15
2022-11-07T02:10:40.444Z,84.17
2022-11-07T02:13:37.882Z,84.10
2022-11-07T02:16:35.336Z,84.13
2022-11-07T02:19:32.795Z,84.18
2022-11-07T02:22:30.256Z,84.14
2022-11-07T02:25:27.728Z,84.19
2022-11-07T02:28:25.219Z,84.21
2022-11-07T02:31:22.672Z,84.22
2022-11-07T02:34:20.158Z,84.19
2022-11-07T02:37:17.614Z,84.17
2022-11-07T02:40:15.066Z,84.20
2022-11-07T02:43:12.712Z,84.14
2022-11-07T02:46:10.467Z,84.17
2022-11-07T02:49:07.932Z,84.21
2022-11-07T02:52:05.407Z,84.28
2022-11-07T02:55:02.872Z,84.34
2022-11-07T02:58:00.325Z,84.39
2022-11-07T03:01:03.021Z,84.46
2022-11-07T03:04:00.495Z,84.50
2022-11-07T03:06:57.946Z,84.57
2022-11-07T03:09:55.431Z,84.62
2022-11-07T03:12:52.889Z,84.59
2022-11-07T03:15:50.342Z,84.60
2022-11-07T03:18:47.800Z,84.58
2022-11-07T03:21:45.256Z,84.50
2022-11-07T03:24:42.722Z,84.35
2022-11-07T03:27:40.186Z,84.15
2022-11-07T03:30:37.630Z,84.00
2022-11-07T03:33:35.146Z,83.73
2022-11-07T03:36:33.621Z,83.13
2022-11-07T03:39:31.085Z,82.81
2022-11-07T03:42:28.550Z,82.41
2022-11-07T03:45:26.053Z,81.94
2022-11-07T03:48:23.497Z,81.49
2022-11-07T03:51:20.952Z,81.11
2022-11-07T03:54:18.388Z,80.76
2022-11-07T03:57:15.865Z,81.57
2022-11-07T04:00:13.294Z,80.72
2022-11-07T04:03:10.779Z,79.80
2022-11-07T04:06:08.259Z,79.06
2022-11-07T04:09:05.691Z,78.76
2022-11-07T04:12:21.186Z,78.43
2022-11-07T04:15:36.529Z,78.22
2022-11-07T04:18:33.998Z,78.00
2022-11-07T04:21:32.051Z,77.83
2022-11-07T04:24:29.492Z,77.74
2022-11-07T04:27:47.027Z,77.71
2022-11-07T04:30:44.531Z,77.92
2022-11-07T04:33:42.042Z,78.00
2022-11-07T04:36:39.484Z,77.93
2022-11-07T04:39:36.955Z,77.89
2022-11-07T04:42:34.390Z,77.86
2022-11-07T04:45:31.842Z,78.07
2022-11-07T04:48:29.312Z,78.25
2022-11-07T04:51:26.785Z,78.49
2022-11-07T04:54:24.233Z,78.90
2022-11-07T04:57:21.693Z,79.27
2022-11-07T05:00:19.155Z,79.58
2022-11-07T05:03:17.005Z,79.62
2022-11-07T05:06:14.860Z,79.14
2022-11-07T05:09:12.329Z,78.54
2022-11-07T05:12:09.901Z,78.12
2022-11-07T05:15:07.345Z,77.85
2022-11-07T05:18:04.805Z,77.85
2022-11-07T05:21:02.247Z,78.03
2022-11-07T05:23:59.722Z,78.09
2022-11-07T05:26:57.180Z,78.36
2022-11-07T05:29:54.655Z,78.74
2022-11-07T05:32:52.772Z,78.99
2022-11-07T05:35:50.237Z,79.31
2022-11-07T05:38:47.697Z,79.58
2022-11-07T05:41:45.137Z,79.68
2022-11-07T05:44:42.629Z,80.09
2022-11-07T05:47:40.109Z,80.34
2022-11-07T05:50:37.557Z,80.49
2022-11-07T05:53:35.054Z,80.44
2022-11-07T05:56:32.576Z,80.75
2022-11-07T05:59:30.016Z,81.03
2022-11-07T06:02:27.609Z,81.42
2022-11-07T06:05:25.241Z,81.85
2022-11-07T06:08:22.711Z,82.21
2022-11-07T06:11:20.163Z,82.39
2022-11-07T06:14:17.627Z,82.42
2022-11-07T06:17:15.125Z,82.57
2022-11-07T06:20:12.594Z,82.53
2022-11-07T06:23:10.037Z,82.46
2022-11-07T06:26:07.497Z,82.66
2022-11-07T06:29:04.970Z,82.71
2022-11-07T06:32:02.454Z,82.86
2022-11-07T06:34:59.939Z,82.85
2022-11-07T06:37:57.391Z,82.92
2022-11-07T06:40:54.859Z,83.13
2022-11-07T06:43:52.321Z,83.32
2022-11-07T06:46:49.775Z,83.51
2022-11-07T06:49:48.067Z,83.69
2022-11-07T06:52:45.510Z,83.75
2022-11-07T06:55:42.954Z,83.71
2022-11-07T06:58:40.396Z,83.84
2022-11-07T07:01:38.027Z,83.88
2022-11-07T07:04:35.691Z,83.69
2022-11-07T07:07:33.168Z,83.83
2022-11-07T07:10:30.714Z,83.82
2022-11-07T07:13:28.231Z,83.88
2022-11-07T07:16:25.710Z,84.05
2022-11-07T07:19:23.159Z,83.83
2022-11-07T07:22:20.631Z,83.39
2022-11-07T07:25:18.085Z,83.48
2022-11-07T07:28:15.553Z,83.40
2022-11-07T07:31:13.082Z,83.15
2022-11-07T07:34:10.535Z,83.18
2022-11-07T07:37:07.990Z,83.27
2022-11-07T07:40:05.427Z,83.29
2022-11-07T07:43:02.915Z,82.92
2022-11-07T07:46:00.437Z,82.76
2022-11-07T07:48:57.904Z,82.81
2022-11-07T07:51:55.360Z,82.55
2022-11-07T07:54:52.801Z,82.07
2022-11-07T07:57:50.281Z,81.98
2022-11-07T08:00:47.737Z,82.07
2022-11-07T08:04:00.834Z,82.03
2022-11-07T08:06:59.714Z,81.95
2022-11-07T08:10:05.526Z,81.82
2022-11-07T08:13:17.880Z,81.54
2022-11-07T08:16:16.060Z,81.60
2022-11-07T08:19:13.602Z,81.81
2022-11-07T08:22:11.608Z,82.10
2022-11-07T08:25:09.053Z,82.14
2022-11-07T08:28:07.241Z,82.26
2022-11-07T08:31:04.709Z,82.12
2022-11-07T08:34:02.820Z,81.90
2022-11-07T08:37:00.422Z,81.55
2022-11-07T08:39:57.918Z,81.26
2022-11-07T08:42:57.511Z,81.06
2022-11-07T08:45:54.988Z,80.79
2022-11-07T08:48:56.066Z,80.64
2022-11-07T08:51:53.582Z,80.39
2022-11-07T08:54:51.063Z,80.30
2022-11-07T08:57:48.517Z,80.65
2022-11-07T09:00:46.056Z,80.31
2022-11-07T09:03:48.863Z,79.89
2022-11-07T09:06:48.131Z,79.45
2022-11-07T09:09:45.588Z,79.25
2022-11-07T09:12:43.064Z,79.26
2022-11-07T09:15:40.549Z,79.40
2022-11-07T09:18:38.189Z,79.24
2022-11-07T09:21:36.666Z,78.77
2022-11-07T09:24:34.114Z,78.27
2022-11-07T09:27:31.569Z,77.67
2022-11-07T09:30:29.051Z,77.17
2022-11-07T09:33:26.494Z,76.50
2022-11-07T09:36:24.419Z,76.21
2022-11-07T09:39:21.881Z,75.88
2022-11-07T09:42:19.488Z,75.58
2022-11-07T09:45:16.935Z,75.51
2022-11-07T09:48:14.395Z,75.34
2022-11-07T09:51:13.196Z,75.41
2022-11-07T09:54:10.667Z,75.35
2022-11-07T09:57:13.970Z,75.58
2022-11-07T10:00:11.775Z,75.46
2022-11-07T10:03:09.262Z,75.26
2022-11-07T10:06:06.746Z,75.23
2022-11-07T10:09:04.423Z,75.10
2022-11-07T10:12:02.050Z,74.72
2022-11-07T10:15:01.585Z,74.60
2022-11-07T10:17:59.026Z,74.17
2022-11-07T10:21:16.229Z,74.20
2022-11-07T10:24:14.330Z,74.18
2022-11-07T10:27:11.782Z,73.83
2022-11-07T10:30:09.228Z,73.55
2022-11-07T10:33:06.706Z,73.09
2022-11-07T10:36:04.169Z,72.84
2022-11-07T10:39:02.627Z,72.61
2022-11-07T10:42:00.107Z,71.88
2022-11-07T10:44:57.572Z,71.62
2022-11-07T10:47:55.008Z,71.21
2022-11-07T10:50:52.536Z,71.27
2022-11-07T10:53:50.904Z,71.09
2022-11-07T10:56:48.356Z,71.18
2022-11-07T10:59:45.818Z,70.66
2022-11-07T11:02:43.280Z,70.91
2022-11-07T11:05:40.738Z,69.56
2022-11-07T11:08:38.192Z,68.44
2022-11-07T11:11:37.177Z,68.37
2022-11-07T11:14:35.470Z,66.34
2022-11-07T11:17:33.829Z,66.42
2022-11-07T11:20:31.331Z,65.61
2022-11-07T11:23:28.831Z,65.52
2022-11-07T11:26:26.281Z,64.10
2022-11-07T11:29:24.357Z,64.03
2022-11-07T11:32:21.856Z,63.36
2022-11-07T11:35:19.311Z,62.89
2022-11-07T11:38:16.834Z,62.01
2022-11-07T11:41:14.414Z,61.77
2022-11-07T11:44:11.893Z,62.21
2022-11-07T11:47:09.337Z,62.24
2022-11-07T11:50:06.788Z,61.30
2022-11-07T11:53:04.223Z,60.25
2022-11-07T11:56:01.664Z,60.57
2022-11-07T11:58:59.114Z,60.08
2022-11-07T12:01:56.622Z,59.08
2022-11-07T12:04:58.312Z,58.28
2022-11-07T12:07:56.224Z,57.77
2022-11-07T12:10:53.693Z,57.87
2022-11-07T12:13:51.119Z,57.10
2022-11-07T12:16:48.573Z,56.72
2022-11-07T12:19:46.046Z,57.15
2022-11-07T12:22:44.092Z,57.93
2022-11-07T12:25:41.571Z,57.64
2022-11-07T12:28:39.370Z,57.65
2022-11-07T12:31:36.858Z,57.07
2022-11-07T12:34:34.310Z,57.42
2022-11-07T12:37:31.763Z,57.77
2022-11-07T12:40:29.422Z,57.12
2022-11-07T12:43:26.895Z,57.05
2022-11-07T12:46:24.357Z,57.44
2022-11-07T12:49:21.836Z,57.30
2022-11-07T12:52:19.318Z,57.24
2022-11-07T12:55:16.803Z,57.22
2022-11-07T12:58:14.339Z,57.21
2022-11-07T13:01:11.879Z,57.73
2022-11-07T13:04:09.360Z,57.96
2022-11-07T13:07:06.833Z,57.53
2022-11-07T13:10:04.346Z,57.16
2022-11-07T13:13:01.807Z,57.30
2022-11-07T13:16:14.941Z,57.56
2022-11-07T13:19:13.205Z,57.76
2022-11-07T13:22:10.672Z,57.46
2022-11-07T13:25:11.794Z,57.34
2022-11-07T13:28:11.160Z,57.60
2022-11-07T13:31:08.652Z,57.67
2022-11-07T13:34:06.103Z,57.51
2022-11-07T13:37:03.822Z,57.77
2022-11-07T13:40:02.029Z,57.63
2022-11-07T13:42:59.541Z,57.88
2022-11-07T13:45:57.014Z,58.20
2022-11-07T13:48:54.463Z,57.97
2022-11-07T13:51:51.942Z,57.83
2022-11-07T13:54:49.392Z,58.15
2022-11-07T13:57:46.862Z,58.07
2022-11-07T14:00:44.386Z,58.03
2022-11-07T14:03:41.906Z,57.98
2022-11-07T14:06:39.345Z,58.06
2022-11-07T14:09:36.815Z,58.07
2022-11-07T14:12:34.290Z,57.95
2022-11-07T14:15:31.730Z,58.03
2022-11-07T14:18:29.914Z,58.18
2022-11-07T14:21:27.366Z,58.31
2022-11-07T14:24:24.808Z,58.32
2022-11-07T14:27:22.793Z,58.37
2022-11-07T14:30:20.259Z,58.57
2022-11-07T14:33:17.719Z,58.63
2022-11-07T14:36:15.204Z,58.89
2022-11-07T14:39:15.572Z,59.00
2022-11-07T14:42:13.443Z,59.35
2022-11-07T14:45:10.927Z,59.61
2022-11-07T14:48:08.383Z,59.96
2022-11-07T14:51:06.107Z,60.32
2022-11-07T14:54:03.566Z,60.56
2022-11-07T14:57:01.025Z,60.93
2022-11-07T14:59:58.649Z,61.73
2022-11-07T15:02:56.252Z,62.65
2022-11-07T15:05:53.832Z,63.11
2022-11-07T15:08:51.285Z,63.47
2022-11-07T15:11:48.744Z,63.77
2022-11-07T15:14:46.206Z,64.14
2022-11-07T15:17:43.681Z,64.44
2022-11-07T15:20:41.134Z,64.73
2022-11-07T15:23:38.591Z,65.05
2022-11-07T15:26:36.907Z,65.56
2022-11-07T15:29:34.474Z,65.89
2022-11-07T15:32:31.969Z,66.21
2022-11-07T15:35:43.734Z,66.56
2022-11-07T15:38:41.867Z,66.86
2022-11-07T15:41:39.334Z,67.27
2022-11-07T15:44:36.841Z,67.52
2022-11-07T15:47:34.291Z,67.69
2022-11-07T15:50:32.240Z,67.87
2022-11-07T15:53:29.836Z,68.06
2022-11-07T15:56:27.340Z,68.34
2022-11-07T15:59:26.586Z,68.52
2022-11-07T16:02:24.427Z,68.63
2022-11-07T16:05:22.083Z,68.92
2022-11-07T16:08:19.753Z,69.18
2022-11-07T16:11:19.810Z,69.36
2022-11-07T16:14:42.241Z,69.61
2022-11-07T16:17:36.315Z,69.83
2022-11-07T16:20:34.198Z,70.10
2022-11-07T16:23:31.679Z,70.32
2022-11-07T16:26:29.412Z,70.48
2022-11-07T16:29:26.947Z,70.69
2022-11-07T16:32:31.261Z,70.90
2022-11-07T16:35:29.384Z,71.16
2022-11-07T16:38:30.217Z,71.49
2022-11-07T16:41:31.613Z,71.76
2022-11-07T16:44:29.187Z,72.01
2022-11-07T16:47:28.081Z,72.20
2022-11-07T16:50:25.660Z,72.34
2022-11-07T16:53:23.632Z,72.45
2022-11-07T16:56:21.885Z,72.50
2022-11-07T16:59:19.781Z,72.79
2022-11-07T17:02:24.029Z,72.97
2022-11-07T17:05:22.374Z,73.14
2022-11-07T17:08:19.910Z,73.28
2022-11-07T17:11:17.716Z,73.52
2022-11-07T17:14:16.348Z,73.75
2022-11-07T17:17:14.005Z,73.95
2022-11-07T17:20:19.623Z,74.09
2022-11-07T17:23:30.247Z,74.22
2022-11-07T17:26:30.744Z,74.31
2022-11-07T17:29:29.347Z,74.46
2022-11-07T17:32:29.641Z,74.57
2022-11-07T17:35:32.528Z,74.66
2022-11-07T17:38:31.115Z,74.78
2022-11-07T17:41:30.218Z,74.89
2022-11-07T17:44:28.187Z,74.87
2022-11-07T17:47:26.122Z,75.04
2022-11-07T17:50:26.914Z,75.19
2022-11-07T17:53:24.964Z,75.34
2022-11-07T17:56:23.254Z,75.42
2022-11-07T17:59:23.190Z,75.42
2022-11-07T18:02:22.003Z,75.66
2022-11-07T18:05:20.639Z,75.84
2022-11-07T18:08:38.417Z,76.05
2022-11-07T18:11:37.663Z,76.12
2022-11-07T18:14:36.398Z,76.38
2022-11-07T18:17:36.050Z,76.49
2022-11-07T18:20:34.572Z,76.64
2022-11-07T18:23:32.490Z,76.72
2022-11-07T18:26:34.027Z,76.88
2022-11-07T18:29:31.690Z,77.04
2022-11-07T18:32:35.775Z,77.18
2022-11-07T18:35:35.072Z,77.26
2022-11-07T18:38:35.004Z,77.34
2022-11-07T18:41:32.576Z,77.40
2022-11-07T18:44:32.077Z,77.53
2022-11-07T18:47:30.302Z,77.59
2022-11-07T18:50:29.997Z,77.76
2022-11-07T18:53:28.900Z,77.95
2022-11-07T18:56:27.859Z,78.03
2022-11-07T18:59:28.795Z,78.26
2022-11-07T19:02:29.223Z,78.35
2022-11-07T19:05:28.122Z,78.53
2022-11-07T19:08:26.255Z,78.66
2022-11-07T19:11:29.103Z,78.72
2022-11-07T19:14:27.567Z,78.78
2022-11-07T19:17:27.718Z,78.96
2022-11-07T19:20:25.955Z,79.05
2022-11-07T19:23:25.980Z,79.08
2022-11-07T19:26:26.410Z,79.19
2022-11-07T19:29:26.417Z,79.26
2022-11-07T19:32:27.097Z,79.39
2022-11-07T19:35:25.806Z,79.43
2022-11-07T19:38:24.432Z,79.40
2022-11-07T19:41:23.857Z,79.41
2022-11-07T19:44:22.404Z,79.37
2022-11-07T19:47:21.405Z,79.44
2022-11-07T19:50:20.006Z,79.52
2022-11-07T19:53:18.435Z,79.66
2022-11-07T19:56:16.664Z,79.82
2022-11-07T19:59:17.360Z,79.88
2022-11-07T20:02:32.855Z,79.90
2022-11-07T20:05:35.957Z,79.98
2022-11-07T20:08:34.755Z,80.06
2022-11-07T20:11:33.456Z,79.88
2022-11-07T20:14:32.143Z,80.24
2022-11-07T20:17:32.570Z,80.40
2022-11-07T20:20:31.719Z,80.53
2022-11-07T20:23:29.938Z,80.67
2022-11-07T20:26:30.303Z,80.80
2022-11-07T20:29:30.855Z,80.95
2022-11-07T20:32:29.096Z,80.86
2022-11-07T20:35:29.810Z,80.91
2022-11-07T20:38:28.601Z,80.84
2022-11-07T20:41:27.655Z,81.00
2022-11-07T20:44:25.700Z,81.13
2022-11-07T20:47:24.316Z,81.21
2022-11-07T20:50:23.426Z,81.05
2022-11-07T20:53:21.000Z,81.13
2022-11-07T20:56:19.490Z,81.14
2022-11-07T20:59:19.212Z,81.18
2022-11-07T21:02:18.639Z,81.07
2022-11-07T21:05:18.653Z,81.11
2022-11-07T21:08:16.973Z,81.18
2022-11-07T21:11:14.742Z,81.23
2022-11-07T21:14:12.999Z,81.25
2022-11-07T21:17:11.106Z,81.33
2022-11-07T21:20:10.370Z,81.42
2022-11-07T21:23:09.574Z,81.35
2022-11-07T21:26:08.132Z,81.40
2022-11-07T21:29:07.075Z,81.50
2022-11-07T21:32:07.281Z,81.57
2022-11-07T21:35:06.934Z,81.59
2022-11-07T21:38:05.733Z,81.71
2022-11-07T21:41:03.214Z,81.77
2022-11-07T21:44:02.542Z,81.82
2022-11-07T21:47:00.004Z,81.79
2022-11-07T21:49:59.742Z,81.82
2022-11-07T21:52:57.231Z,81.84
2022-11-07T21:55:54.747Z,81.86
2022-11-07T21:58:52.428Z,81.99
2022-11-07T22:01:50.156Z,82.03
2022-11-07T22:04:48.037Z,82.08
2022-11-07T22:07:45.525Z,82.13
2022-11-07T22:10:43.372Z,82.08
2022-11-07T22:13:41.092Z,82.15
2022-11-07T22:16:38.642Z,82.27
2022-11-07T22:19:36.152Z,82.13
2022-11-07T22:22:34.627Z,82.16
2022-11-07T22:25:32.205Z,82.19
2022-11-07T22:28:29.645Z,82.17
2022-11-07T22:31:27.159Z,82.22
2022-11-07T22:34:24.708Z,82.27
2022-11-07T22:37:22.255Z,82.39
2022-11-07T22:40:20.520Z,82.45
2022-11-07T22:43:18.643Z,82.47
2022-11-07T22:46:16.691Z,82.59
2022-11-07T22:49:14.366Z,82.65
2022-11-07T22:52:12.107Z,82.71
2022-11-07T22:55:09.615Z,82.75
2022-11-07T22:58:07.289Z,82.71
2022-11-07T23:01:05.187Z,82.68
2022-11-07T23:04:02.671Z,82.72
2022-11-07T23:07:00.093Z,82.79
2022-11-07T23:10:00.684Z,82.89
2022-11-07T23:12:58.640Z,82.96
2022-11-07T23:15:56.255Z,83.03
2022-11-07T23:18:53.687Z,83.10
2022-11-07T23:21:51.180Z,83.05
2022-11-07T23:24:48.703Z,83.05
2022-11-07T23:27:46.272Z,83.06
2022-11-07T23:30:43.847Z,83.05
2022-11-07T23:33:41.346Z,83.08
2022-11-07T23:36:40.923Z,83.08
2022-11-07T23:39:38.433Z,83.00
2022-11-07T23:42:35.906Z,83.00
2022-11-07T23:45:51.200Z,83.05
2022-11-07T23:49:10.610Z,83.02
2022-11-07T23:52:11.134Z,83.04
2022-11-07T23:55:26.177Z,82.93
2022-11-07T23:58:41.454Z,83.02
